createdAt,value
2022-10-28T00:00:48.848Z,88.29
2022-10-28T00:01:48.942Z,87.99
2022-10-28T00:02:48.855Z,87.99
2022-10-28T00:03:48.811Z,88.09
2022-10-28T00:04:48.780Z,88.20
2022-10-28T00:05:48.792Z,87.99
2022-10-28T00:06:48.772Z,88.90
2022-10-28T00:07:48.760Z,88.80
2022-10-28T00:08:48.753Z,88.80
2022-10-28T00:09:48.737Z,88.09
2022-10-28T00:10:48.730Z,87.89
2022-10-28T00:11:48.708Z,88.20
2022-10-28T00:12:48.703Z,88.09
2022-10-28T00:13:48.696Z,88.20
2022-10-28T00:14:48.692Z,87.99
2022-10-28T00:15:48.668Z,87.89
2022-10-28T00:16:48.657Z,88.09
2022-10-28T00:17:48.652Z,88.20
2022-10-28T00:18:48.659Z,88.40
2022-10-28T00:19:48.619Z,88.25
2022-10-28T00:20:48.609Z,88.25
2022-10-28T00:21:48.609Z,88.25
2022-10-28T00:22:48.583Z,88.09
2022-10-28T00:23:48.580Z,87.95
2022-10-28T00:24:48.598Z,88.05
2022-10-28T00:25:48.567Z,88.66
2022-10-28T00:26:48.547Z,88.15
2022-10-28T00:27:48.537Z,87.74
2022-10-28T00:28:48.523Z,87.65
2022-10-28T00:29:48.531Z,88.09
2022-10-28T00:30:48.531Z,88.20
2022-10-28T00:31:48.492Z,87.45
2022-10-28T00:32:48.478Z,88.05
2022-10-28T00:33:48.469Z,87.85
2022-10-28T00:34:48.481Z,87.45
2022-10-28T00:35:48.456Z,87.85
2022-10-28T00:36:48.440Z,87.54
2022-10-28T00:37:48.429Z,87.54
2022-10-28T00:38:48.423Z,88.05
2022-10-28T00:39:48.408Z,87.95
2022-10-28T00:40:48.415Z,87.45
2022-10-28T00:41:48.393Z,87.24
2022-10-28T00:42:48.389Z,87.04
2022-10-28T00:43:48.363Z,87.04
2022-10-28T00:44:48.345Z,86.73
2022-10-28T00:45:48.344Z,86.94
2022-10-28T00:46:48.364Z,86.94
2022-10-28T00:47:48.318Z,87.24
2022-10-28T00:48:48.307Z,87.65
2022-10-28T00:49:48.292Z,87.85
2022-10-28T00:50:48.289Z,87.95
2022-10-28T00:51:48.271Z,87.85
2022-10-28T00:52:48.288Z,87.45
2022-10-28T00:53:48.249Z,87.14
2022-10-28T00:54:48.236Z,87.54
2022-10-28T00:55:48.239Z,87.24
2022-10-28T00:56:48.229Z,87.04
2022-10-28T00:57:48.209Z,87.04
2022-10-28T00:58:48.211Z,86.94
2022-10-28T00:59:48.199Z,86.94
2022-10-28T01:00:48.187Z,87.54
2022-10-28T01:01:48.316Z,87.99
2022-10-28T01:02:48.273Z,87.85
2022-10-28T01:03:48.144Z,88.15
2022-10-28T01:04:48.142Z,87.85
2022-10-28T01:05:48.125Z,87.74
2022-10-28T01:06:48.128Z,87.74
2022-10-28T01:07:48.132Z,87.34
2022-10-28T01:08:48.097Z,87.24
2022-10-28T01:09:48.086Z,87.45
2022-10-28T01:10:48.071Z,86.73
2022-10-28T01:11:48.063Z,87.54
2022-10-28T01:12:48.059Z,86.94
2022-10-28T01:13:48.058Z,87.45
2022-10-28T01:14:48.022Z,87.38
2022-10-28T01:15:48.021Z,87.24
2022-10-28T01:16:47.998Z,87.24
2022-10-28T01:17:48.001Z,87.54
2022-10-28T01:18:48.010Z,87.04
2022-10-28T01:19:47.973Z,87.45
2022-10-28T01:20:48.446Z,87.34
2022-10-28T01:21:47.969Z,87.04
2022-10-28T01:22:47.940Z,87.65
2022-10-28T01:23:47.949Z,87.54
2022-10-28T01:24:47.919Z,87.54
2022-10-28T01:25:47.912Z,87.65
2022-10-28T01:26:47.912Z,86.94
2022-10-28T01:27:47.891Z,87.45
2022-10-28T01:28:47.893Z,87.54
2022-10-28T01:29:47.892Z,87.65
2022-10-28T01:30:47.856Z,88.09
2022-10-28T01:31:47.844Z,87.34
2022-10-28T01:32:47.831Z,87.54
2022-10-28T01:33:47.821Z,86.98
2022-10-28T01:34:47.830Z,87.79
2022-10-28T01:35:47.807Z,87.99
2022-10-28T01:36:47.799Z,88.20
2022-10-28T01:37:47.776Z,88.09
2022-10-28T01:38:47.773Z,87.74
2022-10-28T01:39:47.767Z,88.09
2022-10-28T01:40:47.735Z,87.59
2022-10-28T01:41:47.750Z,87.74
2022-10-28T01:42:47.744Z,87.95
2022-10-28T01:43:47.717Z,88.05
2022-10-28T01:44:47.718Z,87.45
2022-10-28T01:45:47.706Z,87.95
2022-10-28T01:46:47.676Z,87.74
2022-10-28T01:47:47.690Z,87.85
2022-10-28T01:48:47.651Z,87.74
2022-10-28T01:49:47.649Z,87.79
2022-10-28T01:50:47.635Z,88.09
2022-10-28T01:51:47.623Z,87.74
2022-10-28T01:52:47.623Z,88.09
2022-10-28T01:53:47.602Z,88.09
2022-10-28T01:54:47.588Z,87.89
2022-10-28T01:55:47.585Z,88.09
2022-10-28T01:56:47.568Z,88.09
2022-10-28T01:57:47.579Z,88.09
2022-10-28T01:58:47.561Z,87.89
2022-10-28T01:59:47.545Z,88.20
2022-10-28T02:00:47.625Z,88.29
2022-10-28T02:01:47.757Z,88.09
2022-10-28T02:02:47.512Z,88.29
2022-10-28T02:03:47.535Z,88.09
2022-10-28T02:04:47.490Z,87.89
2022-10-28T02:05:47.479Z,88.09
2022-10-28T02:06:47.474Z,88.44
2022-10-28T02:07:47.457Z,88.09
2022-10-28T02:08:47.453Z,88.44
2022-10-28T02:09:47.461Z,88.54
2022-10-28T02:10:47.423Z,88.13
2022-10-28T02:11:47.416Z,88.75
2022-10-28T02:12:47.402Z,88.29
2022-10-28T02:13:47.395Z,88.60
2022-10-28T02:14:47.388Z,88.75
2022-10-28T02:15:47.407Z,88.44
2022-10-28T02:16:47.366Z,88.64
2022-10-28T02:17:47.352Z,88.70
2022-10-28T02:18:47.337Z,88.64
2022-10-28T02:19:47.331Z,88.49
2022-10-28T02:20:47.312Z,88.40
2022-10-28T02:21:47.316Z,88.70
2022-10-28T02:22:47.288Z,88.40
2022-10-28T02:23:47.280Z,88.64
2022-10-28T02:24:47.275Z,88.75
2022-10-28T02:25:47.263Z,88.34
2022-10-28T02:26:47.269Z,88.44
2022-10-28T02:27:47.233Z,88.84
2022-10-28T02:28:47.218Z,88.60
2022-10-28T02:29:47.214Z,88.60
2022-10-28T02:30:47.205Z,88.40
2022-10-28T02:31:47.206Z,88.40
2022-10-28T02:32:47.211Z,88.60
2022-10-28T02:33:47.170Z,88.70
2022-10-28T02:34:47.164Z,88.70
2022-10-28T02:35:47.146Z,88.64
2022-10-28T02:36:47.145Z,88.60
2022-10-28T02:37:47.154Z,88.70
2022-10-28T02:38:47.119Z,88.34
2022-10-28T02:39:47.110Z,88.80
2022-10-28T02:40:47.137Z,88.75
2022-10-28T02:41:47.100Z,88.60
2022-10-28T02:42:47.080Z,88.49
2022-10-28T02:43:47.070Z,88.60
2022-10-28T02:44:47.051Z,88.40
2022-10-28T02:45:47.035Z,88.64
2022-10-28T02:46:47.059Z,88.34
2022-10-28T02:47:47.022Z,88.09
2022-10-28T02:48:47.026Z,88.60
2022-10-28T02:49:47.004Z,89.04
2022-10-28T02:50:46.986Z,88.44
2022-10-28T02:51:46.977Z,88.75
2022-10-28T02:52:46.977Z,89.15
2022-10-28T02:53:46.962Z,89.25
2022-10-28T02:54:46.973Z,89.15
2022-10-28T02:55:46.935Z,89.15
2022-10-28T02:56:46.915Z,89.35
2022-10-28T02:57:46.915Z,89.55
2022-10-28T02:58:46.898Z,89.45
2022-10-28T02:59:46.891Z,89.04
2022-10-28T03:00:46.963Z,88.84
2022-10-28T03:01:47.013Z,89.25
2022-10-28T03:02:46.872Z,89.04
2022-10-28T03:03:46.851Z,89.15
2022-10-28T03:04:46.852Z,89.35
2022-10-28T03:05:46.830Z,89.04
2022-10-28T03:06:46.819Z,89.55
2022-10-28T03:07:46.798Z,89.65
2022-10-28T03:08:46.807Z,89.45
2022-10-28T03:09:46.775Z,89.25
2022-10-28T03:10:46.781Z,88.95
2022-10-28T03:11:46.763Z,89.15
2022-10-28T03:12:46.763Z,89.45
2022-10-28T03:13:46.753Z,89.45
2022-10-28T03:14:46.731Z,89.15
2022-10-28T03:15:46.706Z,89.15
2022-10-28T03:16:46.704Z,89.15
2022-10-28T03:17:46.696Z,89.04
2022-10-28T03:18:46.681Z,89.04
2022-10-28T03:19:46.691Z,89.45
2022-10-28T03:20:46.669Z,89.04
2022-10-28T03:21:46.647Z,89.04
2022-10-28T03:22:46.636Z,88.95
2022-10-28T03:23:46.642Z,89.21
2022-10-28T03:24:46.637Z,89.25
2022-10-28T03:25:46.603Z,89.35
2022-10-28T03:26:46.590Z,89.15
2022-10-28T03:27:46.590Z,89.25
2022-10-28T03:28:46.590Z,89.45
2022-10-28T03:29:46.579Z,89.59
2022-10-28T03:30:46.558Z,90.20
2022-10-28T03:31:46.541Z,90.00
2022-10-28T03:32:46.526Z,89.50
2022-10-28T03:33:46.522Z,89.55
2022-10-28T03:34:46.527Z,89.19
2022-10-28T03:35:46.492Z,90.20
2022-10-28T03:36:46.503Z,89.80
2022-10-28T03:37:46.471Z,89.90
2022-10-28T03:38:46.475Z,89.59
2022-10-28T03:39:46.444Z,89.90
2022-10-28T03:40:46.443Z,90.20
2022-10-28T03:41:46.443Z,90.20
2022-10-28T03:42:46.422Z,90.11
2022-10-28T03:43:46.419Z,90.00
2022-10-28T03:44:46.406Z,90.06
2022-10-28T03:45:46.382Z,90.11
2022-10-28T03:46:46.390Z,90.00
2022-10-28T03:47:46.373Z,89.96
2022-10-28T03:48:46.360Z,89.86
2022-10-28T03:49:46.350Z,89.76
2022-10-28T03:50:46.347Z,89.86
2022-10-28T03:51:46.318Z,90.26
2022-10-28T03:52:46.334Z,89.80
2022-10-28T03:53:46.311Z,89.59
2022-10-28T03:54:46.308Z,89.86
2022-10-28T03:55:46.276Z,89.86
2022-10-28T03:56:46.291Z,89.65
2022-10-28T03:57:46.264Z,89.90
2022-10-28T03:58:46.291Z,90.26
2022-10-28T03:59:46.234Z,90.81
2022-10-28T04:00:46.248Z,90.71
2022-10-28T04:01:46.339Z,90.00
2022-10-28T04:02:46.199Z,90.00
2022-10-28T04:03:46.220Z,89.86
2022-10-28T04:04:46.226Z,90.00
2022-10-28T04:05:46.192Z,89.96
2022-10-28T04:06:46.161Z,89.96
2022-10-28T04:07:46.159Z,89.86
2022-10-28T04:08:46.172Z,89.90
2022-10-28T04:09:46.131Z,89.90
2022-10-28T04:10:47.469Z,89.80
2022-10-28T04:11:46.118Z,89.76
2022-10-28T04:12:46.092Z,90.00
2022-10-28T04:13:46.125Z,90.06
2022-10-28T04:14:46.076Z,90.20
2022-10-28T04:15:46.068Z,90.00
2022-10-28T04:16:46.091Z,90.11
2022-10-28T04:17:46.045Z,89.80
2022-10-28T04:18:46.042Z,90.31
2022-10-28T04:19:46.040Z,89.96
2022-10-28T04:20:46.007Z,90.11
2022-10-28T04:21:46.015Z,90.11
2022-10-28T04:22:46.025Z,89.96
2022-10-28T04:23:45.977Z,90.11
2022-10-28T04:24:45.987Z,89.90
2022-10-28T04:25:46.029Z,90.31
2022-10-28T04:26:45.948Z,90.71
2022-10-28T04:27:45.951Z,90.67
2022-10-28T04:28:45.924Z,90.71
2022-10-28T04:29:45.901Z,90.00
2022-10-28T04:30:45.902Z,90.00
2022-10-28T04:31:48.657Z,90.06
2022-10-28T04:32:47.007Z,89.80
2022-10-28T04:33:45.868Z,90.31
2022-10-28T04:34:45.881Z,89.96
2022-10-28T04:35:45.865Z,89.90
2022-10-28T04:36:45.836Z,89.90
2022-10-28T04:37:45.824Z,90.20
2022-10-28T04:38:45.822Z,90.20
2022-10-28T04:39:45.815Z,90.11
2022-10-28T04:40:45.801Z,90.00
2022-10-28T04:41:45.799Z,89.76
2022-10-28T04:42:45.768Z,89.90
2022-10-28T04:43:45.769Z,90.16
2022-10-28T04:44:45.766Z,89.76
2022-10-28T04:45:45.729Z,90.16
2022-10-28T04:46:45.726Z,90.06
2022-10-28T04:47:45.753Z,90.00
2022-10-28T04:48:45.703Z,89.96
2022-10-28T04:49:45.714Z,89.80
2022-10-28T04:50:45.687Z,89.80
2022-10-28T04:52:45.655Z,89.29
2022-10-28T04:53:45.674Z,90.00
2022-10-28T04:54:45.650Z,90.00
2022-10-28T04:55:45.650Z,90.00
2022-10-28T04:56:45.647Z,90.00
2022-10-28T04:57:45.647Z,89.59
2022-10-28T04:58:45.593Z,90.00
2022-10-28T04:59:45.612Z,89.80
2022-10-28T05:00:45.702Z,89.70
2022-10-28T05:01:45.658Z,89.39
2022-10-28T05:02:46.278Z,89.39
2022-10-28T05:03:45.536Z,89.90
2022-10-28T05:04:45.538Z,89.80
2022-10-28T05:05:45.527Z,90.00
2022-10-28T05:06:45.515Z,89.94
2022-10-28T05:07:45.515Z,89.74
2022-10-28T05:08:45.490Z,90.25
2022-10-28T05:09:45.475Z,89.94
2022-10-28T05:10:45.468Z,90.05
2022-10-28T05:11:45.472Z,90.25
2022-10-28T05:12:45.452Z,90.14
2022-10-28T05:13:45.449Z,89.80
2022-10-28T05:14:46.536Z,89.90
2022-10-28T05:15:45.404Z,90.25
2022-10-28T05:16:45.401Z,90.00
2022-10-28T05:17:45.402Z,89.59
2022-10-28T05:19:45.391Z,89.74
2022-10-28T05:20:45.362Z,89.80
2022-10-28T05:21:45.346Z,89.80
2022-10-28T05:22:45.342Z,90.05
2022-10-28T05:23:45.331Z,89.94
2022-10-28T05:24:45.320Z,89.74
2022-10-28T05:25:45.306Z,89.84
2022-10-28T05:26:45.302Z,90.14
2022-10-28T05:27:45.288Z,89.94
2022-10-28T05:28:45.285Z,90.05
2022-10-28T05:29:45.277Z,91.00
2022-10-28T05:30:45.255Z,89.94
2022-10-28T05:31:45.244Z,90.55
2022-10-28T05:32:45.227Z,90.55
2022-10-28T05:33:45.224Z,90.80
2022-10-28T05:34:45.225Z,91.06
2022-10-28T05:35:45.194Z,90.75
2022-10-28T05:36:45.178Z,90.59
2022-10-28T05:37:45.180Z,90.55
2022-10-28T05:38:45.168Z,90.55
2022-10-28T05:39:45.152Z,90.86
2022-10-28T05:40:45.157Z,90.86
2022-10-28T05:41:45.119Z,91.26
2022-10-28T05:42:45.179Z,90.86
2022-10-28T05:43:45.102Z,90.66
2022-10-28T05:44:45.147Z,90.75
2022-10-28T05:45:45.109Z,90.55
2022-10-28T05:46:45.074Z,90.96
2022-10-28T05:47:45.067Z,90.49
2022-10-28T05:48:45.055Z,90.45
2022-10-28T05:49:45.037Z,90.66
2022-10-28T05:50:45.019Z,90.55
2022-10-28T05:51:45.039Z,90.86
2022-10-28T05:52:45.014Z,90.96
2022-10-28T05:53:44.991Z,90.96
2022-10-28T05:54:44.994Z,90.86
2022-10-28T05:55:47.645Z,90.96
2022-10-28T05:56:44.967Z,91.26
2022-10-28T05:57:44.976Z,91.06
2022-10-28T05:58:44.974Z,91.16
2022-10-28T05:59:44.950Z,91.26
2022-10-28T06:00:45.046Z,91.36
2022-10-28T06:01:45.003Z,90.86
2022-10-28T06:02:44.922Z,91.16
2022-10-28T06:03:44.909Z,90.86
2022-10-28T06:04:44.867Z,90.92
2022-10-28T06:05:44.861Z,90.81
2022-10-28T06:06:44.869Z,90.92
2022-10-28T06:07:44.852Z,90.96
2022-10-28T06:08:44.864Z,90.92
2022-10-28T06:09:44.825Z,91.02
2022-10-28T06:10:44.814Z,91.02
2022-10-28T06:11:43.261Z,90.92
2022-10-28T06:12:43.267Z,90.81
2022-10-28T06:13:43.256Z,90.92
2022-10-28T06:14:43.233Z,91.63
2022-10-28T06:15:43.226Z,91.63
2022-10-28T06:16:43.223Z,91.22
2022-10-28T06:17:43.208Z,91.56
2022-10-28T06:18:43.214Z,91.32
2022-10-28T06:19:43.186Z,91.26
2022-10-28T06:20:43.175Z,91.67
2022-10-28T06:21:43.166Z,91.67
2022-10-28T06:22:43.157Z,91.26
2022-10-28T06:23:43.143Z,91.22
2022-10-28T06:24:43.149Z,91.26
2022-10-28T06:25:43.118Z,91.16
2022-10-28T06:26:43.113Z,91.16
2022-10-28T06:27:43.110Z,91.36
2022-10-28T06:28:43.087Z,91.22
2022-10-28T06:29:43.082Z,91.52
2022-10-28T06:30:43.085Z,91.63
2022-10-28T06:31:43.060Z,91.77
2022-10-28T06:32:43.078Z,91.63
2022-10-28T06:33:43.052Z,91.32
2022-10-28T06:34:43.036Z,91.52
2022-10-28T06:35:43.045Z,91.32
2022-10-28T06:36:43.000Z,91.02
2022-10-28T06:37:42.994Z,90.92
2022-10-28T06:38:43.000Z,91.02
2022-10-28T06:39:43.027Z,90.92
2022-10-28T06:40:42.966Z,90.92
2022-10-28T06:41:42.956Z,90.92
2022-10-28T06:42:42.951Z,91.12
2022-10-28T06:43:42.935Z,91.22
2022-10-28T06:44:42.936Z,91.22
2022-10-28T06:45:42.942Z,91.22
2022-10-28T06:46:44.438Z,91.22
2022-10-28T06:47:44.422Z,91.32
2022-10-28T06:48:44.420Z,91.22
2022-10-28T06:49:44.400Z,91.63
2022-10-28T06:50:44.398Z,91.42
2022-10-28T06:51:44.404Z,91.12
2022-10-28T06:53:44.348Z,91.22
2022-10-28T06:54:44.332Z,91.02
2022-10-28T06:55:44.330Z,91.02
2022-10-28T06:56:44.329Z,91.02
2022-10-28T06:57:44.352Z,90.92
2022-10-28T06:58:44.303Z,90.92
2022-10-28T06:59:44.283Z,90.88
2022-10-28T07:00:44.282Z,90.41
2022-10-28T07:01:44.435Z,90.47
2022-10-28T07:02:45.271Z,91.17
2022-10-28T07:03:44.290Z,90.67
2022-10-28T07:04:44.245Z,90.26
2022-10-28T07:05:44.229Z,90.67
2022-10-28T07:06:46.344Z,90.47
2022-10-28T07:07:44.213Z,90.88
2022-10-28T07:08:44.232Z,90.36
2022-10-28T07:09:44.203Z,90.67
2022-10-28T07:10:44.174Z,89.96
2022-10-28T07:11:44.184Z,90.73
2022-10-28T07:12:44.162Z,90.12
2022-10-28T07:13:45.484Z,90.12
2022-10-28T07:14:44.136Z,89.21
2022-10-28T07:15:44.133Z,89.31
2022-10-28T07:16:44.146Z,89.61
2022-10-28T07:17:44.142Z,89.51
2022-10-28T07:18:44.096Z,89.51
2022-10-28T07:19:44.114Z,89.61
2022-10-28T07:20:44.100Z,89.51
2022-10-28T07:21:44.067Z,89.31
2022-10-28T07:22:44.073Z,88.96
2022-10-28T07:23:44.051Z,88.96
2022-10-28T07:24:44.086Z,89.26
2022-10-28T07:25:44.063Z,89.17
2022-10-28T07:26:44.012Z,88.35
2022-10-28T07:27:44.009Z,88.86
2022-10-28T07:28:43.998Z,88.46
2022-10-28T07:29:44.011Z,88.66
2022-10-28T07:30:43.973Z,88.46
2022-10-28T07:31:43.970Z,88.51
2022-10-28T07:32:43.973Z,88.51
2022-10-28T07:33:43.945Z,88.62
2022-10-28T07:34:43.935Z,88.21
2022-10-28T07:35:43.955Z,88.31
2022-10-28T07:36:43.935Z,88.01
2022-10-28T07:37:43.917Z,88.01
2022-10-28T07:38:43.900Z,88.01
2022-10-28T07:39:43.907Z,88.01
2022-10-28T07:40:43.906Z,88.07
2022-10-28T07:41:43.888Z,87.97
2022-10-28T07:42:43.852Z,86.91
2022-10-28T07:43:43.830Z,86.71
2022-10-28T07:44:43.823Z,86.61
2022-10-28T07:45:43.828Z,86.47
2022-10-28T07:46:43.820Z,86.27
2022-10-28T07:47:43.797Z,86.47
2022-10-28T07:48:43.783Z,85.46
2022-10-28T07:49:43.767Z,85.96
2022-10-28T07:50:43.760Z,86.16
2022-10-28T07:51:43.744Z,85.82
2022-10-28T07:52:43.764Z,85.72
2022-10-28T07:53:43.721Z,85.82
2022-10-28T07:54:43.720Z,85.48
2022-10-28T07:55:43.701Z,84.77
2022-10-28T07:56:43.714Z,84.67
2022-10-28T07:57:43.679Z,84.37
2022-10-28T07:58:43.661Z,84.47
2022-10-28T07:59:43.661Z,84.17
2022-10-28T08:00:43.694Z,84.77
2022-10-28T08:01:43.714Z,84.37
2022-10-28T08:02:43.637Z,83.96
2022-10-28T08:03:43.602Z,83.96
2022-10-28T08:04:43.660Z,83.92
2022-10-28T08:05:43.588Z,84.23
2022-10-28T08:06:43.592Z,83.22
2022-10-28T08:07:43.629Z,83.07
2022-10-28T08:08:43.551Z,82.78
2022-10-28T08:09:43.524Z,82.23
2022-10-28T08:10:43.524Z,81.73
2022-10-28T08:11:43.515Z,81.48
2022-10-28T08:12:43.489Z,80.98
2022-10-28T08:13:43.481Z,81.18
2022-10-28T08:14:43.482Z,81.04
2022-10-28T08:15:43.463Z,80.78
2022-10-28T08:16:43.437Z,80.54
2022-10-28T08:17:43.430Z,80.44
2022-10-28T08:18:43.411Z,80.54
2022-10-28T08:19:44.150Z,80.00
2022-10-28T08:20:43.408Z,80.44
2022-10-28T08:21:43.383Z,79.96
2022-10-28T08:22:43.364Z,79.66
2022-10-28T08:23:43.349Z,79.25
2022-10-28T08:24:43.351Z,79.16
2022-10-28T08:25:43.374Z,78.65
2022-10-28T08:26:43.310Z,78.55
2022-10-28T08:27:43.313Z,78.65
2022-10-28T08:28:43.297Z,78.21
2022-10-28T08:29:43.299Z,77.61
2022-10-28T08:30:57.229Z,77.81
2022-10-28T08:31:44.264Z,77.37
2022-10-28T08:32:43.252Z,77.03
2022-10-28T08:33:43.281Z,76.63
2022-10-28T08:34:43.808Z,75.99
2022-10-28T08:35:43.253Z,75.15
2022-10-28T08:36:43.280Z,74.74
2022-10-28T08:37:43.208Z,70.56
2022-10-28T08:38:45.701Z,68.32
2022-10-28T08:39:43.179Z,68.66
2022-10-28T08:40:43.177Z,69.29
2022-10-28T08:41:43.167Z,69.26
2022-10-28T08:42:43.178Z,70.59
2022-10-28T08:43:56.664Z,71.23
2022-10-28T08:44:44.154Z,72.40
2022-10-28T08:45:43.112Z,73.24
2022-10-28T08:46:43.107Z,74.38
2022-10-28T08:47:43.159Z,74.48
2022-10-28T08:48:43.101Z,74.98
2022-10-28T08:49:45.709Z,74.74
2022-10-28T08:50:44.054Z,74.81
2022-10-28T08:51:43.049Z,74.01
2022-10-28T08:52:43.035Z,74.21
2022-10-28T08:53:43.247Z,74.11
2022-10-28T08:54:43.019Z,74.11
2022-10-28T08:55:43.003Z,73.91
2022-10-28T08:56:43.003Z,72.87
2022-10-28T08:57:42.980Z,72.74
2022-10-28T08:58:42.988Z,71.43
2022-10-28T08:59:42.963Z,71.39
2022-10-28T09:00:42.957Z,71.50
2022-10-28T09:01:43.109Z,70.62
2022-10-28T09:02:42.939Z,70.83
2022-10-28T09:03:42.931Z,69.69
2022-10-28T09:04:42.905Z,69.49
2022-10-28T09:05:42.899Z,69.36
2022-10-28T09:06:42.890Z,69.29
2022-10-28T09:07:42.872Z,70.09
2022-10-28T09:08:42.876Z,69.62
2022-10-28T09:09:42.871Z,70.62
2022-10-28T09:10:42.832Z,70.76
2022-10-28T09:11:42.830Z,70.36
2022-10-28T09:12:42.833Z,71.59
2022-10-28T09:13:42.809Z,71.63
2022-10-28T09:14:43.675Z,71.33
2022-10-28T09:15:42.797Z,71.63
2022-10-28T09:16:42.780Z,72.63
2022-10-28T09:17:42.767Z,72.33
2022-10-28T09:18:42.746Z,72.63
2022-10-28T09:19:42.760Z,72.74
2022-10-28T09:20:42.733Z,72.74
2022-10-28T09:21:42.715Z,72.37
2022-10-28T09:22:42.711Z,72.56
2022-10-28T09:23:42.859Z,72.87
2022-10-28T09:24:42.696Z,72.94
2022-10-28T09:25:42.701Z,73.03
2022-10-28T09:26:42.661Z,72.33
2022-10-28T09:27:42.663Z,72.13
2022-10-28T09:28:42.651Z,71.59
2022-10-28T09:29:44.341Z,71.36
2022-10-28T09:30:42.619Z,70.56
2022-10-28T09:31:42.628Z,70.96
2022-10-28T09:32:42.617Z,70.53
2022-10-28T09:33:42.592Z,70.26
2022-10-28T09:34:42.597Z,68.86
2022-10-28T09:35:42.590Z,66.73
2022-10-28T09:36:42.650Z,66.63
2022-10-28T09:37:42.541Z,66.63
2022-10-28T09:38:42.545Z,65.93
2022-10-28T09:39:42.524Z,66.33
2022-10-28T09:40:42.512Z,66.76
2022-10-28T09:41:42.508Z,66.63
2022-10-28T09:42:42.519Z,67.06
2022-10-28T09:43:42.475Z,66.66
2022-10-28T09:44:42.481Z,67.36
2022-10-28T09:45:42.460Z,67.29
2022-10-28T09:46:42.446Z,67.43
2022-10-28T09:47:42.436Z,67.72
2022-10-28T09:48:42.439Z,68.23
2022-10-28T09:49:42.407Z,68.43
2022-10-28T09:50:42.399Z,67.93
2022-10-28T09:51:42.389Z,68.13
2022-10-28T09:52:42.412Z,68.32
2022-10-28T09:53:42.422Z,68.43
2022-10-28T09:54:42.357Z,68.52
2022-10-28T09:55:42.354Z,68.32
2022-10-28T09:56:42.341Z,68.43
2022-10-28T09:57:42.350Z,68.62
2022-10-28T09:58:42.323Z,68.23
2022-10-28T09:59:42.326Z,68.82
2022-10-28T10:00:42.311Z,68.73
2022-10-28T10:01:42.400Z,69.02
2022-10-28T10:02:42.489Z,68.49
2022-10-28T10:03:42.275Z,68.49
2022-10-28T10:04:42.279Z,68.09
2022-10-28T10:05:42.257Z,67.79
2022-10-28T10:06:42.228Z,67.79
2022-10-28T10:07:42.224Z,67.59
2022-10-28T10:08:42.210Z,67.72
2022-10-28T10:09:42.220Z,68.13
2022-10-28T10:10:42.195Z,68.66
2022-10-28T10:11:42.197Z,68.96
2022-10-28T10:12:42.173Z,68.86
2022-10-28T10:13:42.171Z,69.06
2022-10-28T10:14:42.147Z,69.26
2022-10-28T10:15:42.160Z,69.26
2022-10-28T10:16:42.165Z,69.19
2022-10-28T10:17:42.153Z,69.36
2022-10-28T10:18:42.121Z,69.46
2022-10-28T10:19:42.092Z,69.16
2022-10-28T10:20:42.087Z,69.36
2022-10-28T10:21:42.069Z,69.16
2022-10-28T10:22:42.079Z,69.16
2022-10-28T10:23:42.069Z,69.16
2022-10-28T10:24:42.042Z,68.66
2022-10-28T10:25:42.027Z,68.66
2022-10-28T10:26:42.025Z,68.96
2022-10-28T10:27:42.019Z,68.76
2022-10-28T10:28:42.009Z,69.06
2022-10-28T10:29:41.980Z,68.93
2022-10-28T10:30:41.970Z,69.36
2022-10-28T10:31:41.959Z,69.26
2022-10-28T10:32:41.983Z,69.26
2022-10-28T10:33:41.947Z,69.76
2022-10-28T10:34:41.925Z,69.46
2022-10-28T10:35:41.930Z,69.56
2022-10-28T10:36:41.902Z,69.46
2022-10-28T10:37:41.905Z,69.59
2022-10-28T10:38:41.900Z,69.39
2022-10-28T10:39:41.870Z,69.49
2022-10-28T10:40:41.903Z,69.76
2022-10-28T10:41:41.845Z,69.69
2022-10-28T10:42:51.682Z,69.99
2022-10-28T10:43:42.848Z,70.50
2022-10-28T10:44:41.819Z,70.79
2022-10-28T10:45:41.854Z,70.36
2022-10-28T10:46:41.797Z,70.86
2022-10-28T10:47:41.788Z,70.56
2022-10-28T10:48:41.782Z,70.36
2022-10-28T10:49:41.806Z,70.39
2022-10-28T10:50:41.763Z,70.19
2022-10-28T10:51:41.749Z,70.26
2022-10-28T10:52:41.734Z,70.46
2022-10-28T10:53:41.728Z,70.86
2022-10-28T10:54:41.712Z,70.26
2022-10-28T10:55:41.722Z,70.56
2022-10-28T10:56:41.730Z,70.66
2022-10-28T10:57:41.686Z,70.46
2022-10-28T10:58:41.670Z,69.86
2022-10-28T10:59:41.649Z,69.96
2022-10-28T11:00:41.674Z,70.76
2022-10-28T11:01:41.751Z,69.96
2022-10-28T11:02:41.788Z,69.36
2022-10-28T11:03:41.605Z,69.36
2022-10-28T11:04:41.609Z,69.46
2022-10-28T11:05:41.605Z,69.66
2022-10-28T11:06:41.601Z,69.66
2022-10-28T11:07:41.576Z,69.23
2022-10-28T11:08:41.556Z,68.96
2022-10-28T11:09:41.545Z,69.26
2022-10-28T11:10:41.531Z,68.93
2022-10-28T11:11:41.544Z,68.73
2022-10-28T11:12:41.510Z,68.82
2022-10-28T11:13:45.096Z,68.62
2022-10-28T11:14:41.482Z,68.82
2022-10-28T11:15:41.485Z,68.82
2022-10-28T11:16:41.472Z,68.29
2022-10-28T11:17:41.472Z,68.49
2022-10-28T11:18:41.442Z,67.40
2022-10-28T11:19:41.442Z,67.49
2022-10-28T11:20:41.430Z,68.29
2022-10-28T11:21:41.438Z,67.40
2022-10-28T11:22:41.461Z,67.59
2022-10-28T11:23:41.397Z,67.06
2022-10-28T11:24:41.393Z,67.36
2022-10-28T11:25:41.380Z,67.76
2022-10-28T11:26:41.369Z,66.96
2022-10-28T11:27:41.351Z,67.43
2022-10-28T11:28:41.352Z,67.43
2022-10-28T11:29:41.346Z,66.76
2022-10-28T11:30:41.325Z,66.33
2022-10-28T11:31:41.311Z,66.33
2022-10-28T11:32:50.136Z,66.36
2022-10-28T11:33:42.301Z,66.93
2022-10-28T11:34:41.273Z,66.83
2022-10-28T11:35:41.281Z,66.63
2022-10-28T11:36:41.255Z,66.73
2022-10-28T11:37:41.236Z,66.93
2022-10-28T11:38:45.535Z,66.63
2022-10-28T11:39:41.216Z,66.53
2022-10-28T11:40:41.203Z,66.43
2022-10-28T11:41:41.417Z,66.80
2022-10-28T11:42:41.207Z,66.43
2022-10-28T11:43:41.196Z,66.70
2022-10-28T11:44:41.167Z,66.20
2022-10-28T11:45:41.161Z,66.09
2022-10-28T11:46:41.150Z,66.09
2022-10-28T11:47:41.152Z,66.00
2022-10-28T11:48:41.145Z,66.30
2022-10-28T11:49:41.116Z,65.90
2022-10-28T11:50:41.140Z,65.70
2022-10-28T11:51:41.090Z,65.50
2022-10-28T11:52:45.074Z,65.26
2022-10-28T11:53:41.067Z,65.26
2022-10-28T11:54:41.064Z,64.97
2022-10-28T11:55:41.071Z,65.26
2022-10-28T11:56:41.028Z,65.07
2022-10-28T11:57:41.183Z,65.26
2022-10-28T11:58:41.022Z,65.37
2022-10-28T11:59:41.006Z,64.87
2022-10-28T12:00:40.995Z,64.90
2022-10-28T12:01:41.171Z,65.26
2022-10-28T12:02:41.038Z,65.20
2022-10-28T12:03:40.956Z,65.20
2022-10-28T12:04:40.954Z,65.20
2022-10-28T12:05:40.960Z,65.30
2022-10-28T12:06:40.930Z,65.10
2022-10-28T12:07:40.924Z,65.10
2022-10-28T12:08:40.908Z,65.00
2022-10-28T12:09:40.889Z,65.40
2022-10-28T12:10:40.874Z,65.00
2022-10-28T12:11:40.902Z,65.40
2022-10-28T12:12:41.423Z,65.26
2022-10-28T12:13:40.842Z,65.07
2022-10-28T12:14:40.854Z,65.26
2022-10-28T12:15:40.845Z,65.37
2022-10-28T12:16:40.824Z,64.97
2022-10-28T12:17:40.797Z,64.57
2022-10-28T12:18:40.788Z,64.34
2022-10-28T12:19:40.778Z,63.94
2022-10-28T12:20:40.761Z,63.84
2022-10-28T12:21:40.779Z,63.51
2022-10-28T12:22:40.762Z,63.11
2022-10-28T12:23:40.760Z,63.18
2022-10-28T12:24:40.783Z,62.98
2022-10-28T12:25:40.730Z,63.21
2022-10-28T12:26:40.735Z,63.71
2022-10-28T12:27:40.733Z,63.71
2022-10-28T12:28:40.747Z,63.94
2022-10-28T12:29:40.672Z,63.94
2022-10-28T12:30:40.673Z,63.77
2022-10-28T12:31:40.652Z,64.27
2022-10-28T12:32:40.666Z,64.47
2022-10-28T12:33:40.675Z,64.77
2022-10-28T12:34:40.636Z,65.56
2022-10-28T12:35:40.599Z,64.67
2022-10-28T12:36:40.588Z,65.26
2022-10-28T12:37:43.386Z,65.26
2022-10-28T12:38:40.566Z,65.17
2022-10-28T12:39:40.586Z,64.77
2022-10-28T12:40:40.627Z,64.44
2022-10-28T12:42:40.531Z,64.04
2022-10-28T12:43:40.519Z,63.44
2022-10-28T12:44:40.539Z,63.84
2022-10-28T12:45:40.516Z,63.94
2022-10-28T12:46:40.511Z,64.04
2022-10-28T12:47:43.077Z,64.04
2022-10-28T12:48:40.510Z,63.94
2022-10-28T12:49:40.490Z,63.84
2022-10-28T12:50:40.460Z,64.21
2022-10-28T12:51:40.442Z,63.51
2022-10-28T12:52:40.421Z,63.91
2022-10-28T12:53:40.418Z,63.44
2022-10-28T12:54:40.400Z,64.01
2022-10-28T12:55:40.448Z,63.81
2022-10-28T12:56:40.396Z,63.71